Atwood, Oklahoma
Current Conditions -  °F | °C
As of 11:15 AM on Thursday 18 Dec 2014 (Local Time) from KADH Reporting Station
Haze Haze  
Wind Chill: 39°   Ceiling: 200
Heat Index: 39°   Visibility: 0.75mi
Dew Point: 39°   Wind: 3mph
Humidity: 100%   Direction: 130°SE
Pressure: 30.19"   Gusts: NA
Location:  34.96°N, 96.34°W
Report Text: KADH 181715Z AUTO 13003KT 3/4SM BR OVC002 04/04 A3019 RMK AO2
Loading
Personal Weather Stations






























Interactive Weather Map New forecast layout! Learn more

10-Day Weather Forecast

Advertisements
Track Severe Weather on mobile